Time;durP1;ratioP1;P1;durP2;ratioP2;P2;SDS_P1;SDS_P2;PMS_P1;PMS_P2;Temp;Humidity;BMP_temperature;BMP_pressure;BME280_temperature;BME280_humidity;BME280_pressure;Samples;Min_cycle;Max_cycle;Signal;HPM_P1;HPM_P2
2021/11/12 00:04:55;;;;;;;30.10;17.15;;;13.10;99.90;;;;;;5109683;28;20536;-74
2021/11/12 00:13:25;;;;;;;26.20;16.27;;;13.00;99.90;;;;;;5115385;28;20394;-77
2021/11/12 00:15:51;;;;;;;;;;;13.10;99.90;;;;;;5112557;28;20383;-75
2021/11/12 00:18:19;;;;;;;30.60;16.02;;;13.10;99.90;;;;;;5105843;28;19960;-75
2021/11/12 00:20:46;;;;;;;35.47;16.10;;;13.00;99.90;;;;;;5104699;28;20030;-75
2021/11/12 00:23:13;;;;;;;28.95;15.80;;;13.10;99.90;;;;;;5109265;28;20028;-76
2021/11/12 00:25:42;;;;;;;27.85;15.90;;;13.10;99.90;;;;;;5093970;28;20020;-75
2021/11/12 00:28:08;;;;;;;22.25;15.20;;;13.30;99.90;;;;;;5111921;28;20526;-76
2021/11/12 00:38:50;;;;;;;26.98;16.27;;;13.30;99.90;;;;;;5112655;28;20070;-75
2021/11/12 00:41:22;;;;;;;31.65;17.33;;;13.20;99.90;;;;;;5114359;28;20065;-75
2021/11/12 00:43:54;;;;;;;23.83;14.93;;;13.20;99.90;;;;;;5113536;28;20486;-75
2021/11/12 00:56:30;;;;;;;27.33;16.08;;;13.20;99.90;;;;;;5107726;28;20038;-75
2021/11/12 00:58:59;;;;;;;26.45;15.00;;;13.10;99.90;;;;;;5114102;28;20025;-74
2021/11/12 01:01:28;;;;;;;33.40;16.38;;;13.20;99.90;;;;;;5110475;28;20024;-76
2021/11/12 01:03:54;;;;;;;26.60;16.90;;;13.20;99.90;;;;;;5092747;28;20741;-74
2021/11/12 01:06:20;;;;;;;24.88;16.35;;;13.20;99.90;;;;;;5095589;28;20092;-75
2021/11/12 01:08:46;;;;;;;29.60;15.90;;;13.20;99.90;;;;;;5113318;28;20024;-75
2021/11/12 01:11:13;;;;;;;23.10;15.35;;;13.20;99.90;;;;;;5113860;28;20023;-76
2021/11/12 01:13:40;;;;;;;26.45;16.15;;;13.20;99.90;;;;;;5112459;28;20046;-74
2021/11/12 01:16:06;;;;;;;26.85;15.73;;;13.30;99.90;;;;;;5112959;28;20023;-75
2021/11/12 01:18:35;;;;;;;24.88;14.55;;;13.30;99.90;;;;;;5111216;28;20065;-74
2021/11/12 01:21:02;;;;;;;22.42;15.60;;;13.30;99.90;;;;;;5095261;28;20471;-74
2021/11/12 01:23:28;;;;;;;38.17;16.10;;;13.30;99.90;;;;;;5107872;28;20490;-76
2021/11/12 01:25:54;;;;;;;25.30;15.30;;;13.30;99.90;;;;;;5113015;28;20077;-75
2021/11/12 01:28:20;;;;;;;29.63;15.55;;;13.30;99.90;;;;;;5113343;28;20433;-76
2021/11/12 01:30:46;;;;;;;27.00;14.05;;;13.30;99.90;;;;;;5112453;28;20033;-74
2021/11/12 01:33:12;;;;;;;26.77;16.05;;;13.20;99.90;;;;;;5113142;28;20035;-75
2021/11/12 01:35:38;;;;;;;23.50;15.75;;;13.20;99.90;;;;;;5107353;28;20028;-74
2021/11/12 01:38:04;;;;;;;24.77;15.05;;;13.10;99.90;;;;;;5113259;28;20027;-74
2021/11/12 01:40:30;;;;;;;34.65;15.23;;;13.10;99.90;;;;;;5112775;28;20034;-74
2021/11/12 01:43:00;;;;;;;21.75;13.88;;;13.10;99.90;;;;;;5114174;28;20027;-74
2021/11/12 01:45:36;;;;;;;25.63;15.35;;;13.10;99.90;;;;;;5112483;28;20111;-76
2021/11/12 01:50:34;;;;;;;28.67;14.85;;;13.00;99.90;;;;;;5111011;28;20047;-75
2021/11/12 01:53:08;;;;;;;25.20;15.25;;;13.00;99.90;;;;;;5114241;28;20540;-76
2021/11/12 01:58:15;;;;;;;25.10;15.20;;;13.00;99.90;;;;;;5112435;28;20024;-75
2021/11/12 02:00:42;;;;;;;31.08;15.93;;;12.90;99.90;;;;;;5096813;28;20088;-75
2021/11/12 02:03:09;;;;;;;28.20;16.95;;;12.90;99.90;;;;;;5114367;28;20027;-75
2021/11/12 02:05:35;;;;;;;28.27;17.73;;;12.90;99.90;;;;;;5113445;28;20034;-76
2021/11/12 02:08:01;;;;;;;26.25;16.73;;;12.90;99.90;;;;;;5112423;28;20102;-75
2021/11/12 02:10:30;;;;;;;25.45;16.25;;;12.90;99.90;;;;;;5113259;28;20058;-75
2021/11/12 02:13:08;;;;;;;25.73;17.02;;;12.90;99.90;;;;;;5109305;28;20024;-78
2021/11/12 02:15:36;;;;;;;33.47;17.77;;;12.90;99.90;;;;;;5099317;28;20027;-76
2021/11/12 02:18:11;;;;;;;32.67;17.42;;;12.80;99.90;;;;;;5113795;28;20039;-75
2021/11/12 02:23:04;;;;;;;32.17;17.45;;;12.80;99.90;;;;;;5114113;28;20486;-74
2021/11/12 02:25:36;;;;;;;28.58;17.30;;;12.80;99.90;;;;;;5110287;28;20045;-75
2021/11/12 02:28:10;;;;;;;;;;;12.70;99.90;;;;;;5114470;28;20023;-75
2021/11/12 02:30:36;;;;;;;26.27;15.77;;;12.70;99.90;;;;;;5112696;28;19908;-75
2021/11/12 02:33:12;;;;;;;26.20;15.00;;;12.70;99.90;;;;;;5114567;28;20027;-77
2021/11/12 02:35:43;;;;;;;29.52;16.63;;;12.70;99.90;;;;;;5113596;28;20024;-75
2021/11/12 02:38:09;;;;;;;32.13;17.23;;;12.70;99.90;;;;;;5113718;28;20742;-74
2021/11/12 02:40:38;;;;;;;27.38;17.13;;;12.70;99.90;;;;;;5111450;28;20079;-75
2021/11/12 02:43:04;;;;;;;29.90;16.55;;;12.60;99.90;;;;;;5111442;28;20479;-74
2021/11/12 02:45:30;;;;;;;27.48;16.13;;;12.60;99.90;;;;;;5113285;28;20103;-75
2021/11/12 02:47:56;;;;;;;28.95;17.35;;;12.60;99.90;;;;;;5111305;28;20019;-75
2021/11/12 02:50:22;;;;;;;31.38;18.80;;;12.60;99.90;;;;;;5113136;28;20025;-74
2021/11/12 02:52:58;;;;;;;38.40;18.25;;;12.60;99.90;;;;;;5111119;28;20111;-74
2021/11/12 02:55:25;;;;;;;33.30;19.70;;;12.50;99.90;;;;;;5111298;28;20067;-74
2021/11/12 02:57:50;;;;;;;32.88;17.83;;;12.50;99.90;;;;;;5105102;28;20479;-74
2021/11/12 03:00:21;;;;;;;28.88;18.70;;;12.40;99.90;;;;;;5111522;28;20080;-75
2021/11/12 03:02:47;;;;;;;39.58;19.17;;;12.40;99.90;;;;;;5110299;28;20094;-74
2021/11/12 03:05:13;;;;;;;28.45;18.77;;;12.50;99.90;;;;;;5112734;28;20118;-75
2021/11/12 03:07:39;;;;;;;29.50;19.05;;;12.40;99.90;;;;;;5112248;28;20403;-74
2021/11/12 03:10:05;;;;;;;37.03;17.70;;;12.40;99.90;;;;;;5112347;28;20029;-76
2021/11/12 03:12:34;;;;;;;29.42;17.60;;;12.40;99.90;;;;;;5110515;28;20031;-74
2021/11/12 03:15:00;;;;;;;30.60;16.02;;;12.40;99.90;;;;;;5111567;28;20020;-74
2021/11/12 03:17:26;;;;;;;31.33;17.02;;;12.50;99.90;;;;;;5112757;28;20104;-76
2021/11/12 03:19:52;;;;;;;26.65;15.88;;;12.50;99.90;;;;;;5108409;28;20027;-76
2021/11/12 03:22:21;;;;;;;25.88;16.23;;;12.50;99.90;;;;;;5112628;28;20395;-76
2021/11/12 03:24:58;;;;;;;27.42;15.60;;;12.50;99.90;;;;;;5101612;28;20024;-77
2021/11/12 04:00:11;;;;;;;21.13;14.38;;;12.40;99.90;;;;;;5112481;28;20023;-75
2021/11/12 04:18:53;;;;;;;22.77;13.55;;;12.60;99.90;;;;;;5107578;28;20065;-74
2021/11/12 05:10:19;;;;;;;19.58;11.93;;;12.60;99.90;;;;;;5114751;28;20035;-73
2021/11/12 05:26:46;;;;;;;25.77;13.63;;;12.60;99.90;;;;;;5114934;28;20034;-74
2021/11/12 05:34:57;;;;;;;23.20;12.00;;;12.60;99.90;;;;;;5100203;28;20065;-74
2021/11/12 05:56:37;;;;;;;26.00;12.30;;;12.60;99.90;;;;;;5112162;28;20030;-75
2021/11/12 05:59:03;;;;;;;22.13;12.10;;;12.60;99.90;;;;;;5112067;28;20069;-74
2021/11/12 06:01:31;;;;;;;28.95;13.35;;;12.70;99.90;;;;;;5112958;28;20077;-74
2021/11/12 06:03:57;;;;;;;26.83;12.57;;;12.70;99.90;;;;;;5094247;28;20458;-74
2021/11/12 06:06:23;;;;;;;28.42;12.73;;;12.80;99.90;;;;;;5106590;28;20015;-75
2021/11/12 06:08:49;;;;;;;21.60;12.35;;;12.80;99.90;;;;;;5114189;28;20043;-75
2021/11/12 06:11:15;;;;;;;26.48;12.13;;;12.80;99.90;;;;;;5112660;28;20067;-75
2021/11/12 06:13:41;;;;;;;20.15;12.30;;;12.90;99.90;;;;;;5108801;28;20032;-76
2021/11/12 06:16:07;;;;;;;29.52;12.13;;;12.90;99.90;;;;;;5107984;28;20120;-75
2021/11/12 06:18:32;;;;;;;18.50;11.20;;;13.00;99.90;;;;;;5112728;28;20036;-75
2021/11/12 06:20:58;;;;;;;28.58;11.82;;;13.00;99.90;;;;;;5113315;28;20451;-75
2021/11/12 06:23:24;;;;;;;22.33;12.90;;;13.10;99.90;;;;;;5111665;28;20035;-74
2021/11/12 06:25:50;;;;;;;19.00;11.43;;;13.10;99.90;;;;;;5113745;28;20023;-73
2021/11/12 06:28:15;;;;;;;23.10;12.75;;;13.20;99.90;;;;;;5113004;28;20023;-76
2021/11/12 06:30:41;;;;;;;24.63;12.00;;;13.40;99.90;;;;;;5111377;28;20031;-75
2021/11/12 06:33:07;;;;;;;22.17;12.30;;;13.60;99.90;;;;;;5113119;28;20081;-75
2021/11/12 06:35:33;;;;;;;22.83;12.60;;;13.80;99.90;;;;;;5112603;28;20391;-74
2021/11/12 06:37:58;;;;;;;21.95;11.77;;;14.00;99.90;;;;;;5113062;28;20119;-73
2021/11/12 06:40:24;;;;;;;23.92;11.50;;;14.30;99.90;;;;;;5112403;28;20032;-74
2021/11/12 06:50:37;;;;;;;22.48;12.45;;;16.00;99.90;;;;;;5113736;28;20062;-73
2021/11/12 06:53:04;;;;;;;22.10;12.95;;;16.60;99.90;;;;;;5111179;28;20548;-72
2021/11/12 06:55:30;;;;;;;17.40;10.82;;;17.00;99.90;;;;;;5109226;28;20028;-73
2021/11/12 06:57:56;;;;;;;18.55;10.60;;;17.50;99.90;;;;;;5112368;28;20371;-75
2021/11/12 07:00:22;;;;;;;19.52;11.23;;;17.80;99.90;;;;;;5110229;28;20027;-73
2021/11/12 07:02:49;;;;;;;14.45;10.35;;;18.20;99.90;;;;;;5112273;28;20058;-73
2021/11/12 07:05:16;;;;;;;19.25;11.50;;;18.70;99.90;;;;;;5110949;28;20046;-73
2021/11/12 07:07:42;;;;;;;15.38;9.43;;;18.90;99.90;;;;;;5104076;28;20021;-74
2021/11/12 07:10:09;;;;;;;19.05;9.57;;;19.00;99.90;;;;;;5105945;28;20031;-76
2021/11/12 07:12:35;;;;;;;23.85;9.75;;;19.20;99.90;;;;;;5111872;28;20063;-73
2021/11/12 07:15:03;;;;;;;15.25;9.60;;;19.90;99.90;;;;;;5111088;28;20506;-75
2021/11/12 07:17:29;;;;;;;20.27;9.20;;;20.60;99.90;;;;;;5112235;28;20036;-75
2021/11/12 07:19:54;;;;;;;19.33;10.35;;;20.40;99.90;;;;;;5106362;28;20034;-76
2021/11/12 07:22:20;;;;;;;22.13;9.23;;;19.80;99.90;;;;;;5109072;28;20054;-76
2021/11/12 07:24:46;;;;;;;20.20;9.32;;;19.50;99.90;;;;;;5101098;28;20654;-74
2021/11/12 07:27:13;;;;;;;22.60;10.23;;;19.80;99.90;;;;;;5093106;28;20496;-73
2021/11/12 07:29:42;;;;;;;20.77;11.25;;;19.60;99.90;;;;;;5096137;28;20031;-76
2021/11/12 07:32:08;;;;;;;25.05;11.23;;;19.10;99.90;;;;;;5109317;28;20054;-73
2021/11/12 07:34:35;;;;;;;17.25;9.95;;;18.40;99.90;;;;;;5102498;28;20064;-73
2021/11/12 07:37:19;;;;;;;23.67;11.10;;;18.10;99.90;;;;;;5106502;28;20122;-73
2021/11/12 07:47:25;;;;;;;23.60;11.82;;;17.60;99.90;;;;;;5110202;28;20074;-74
2021/11/12 07:49:56;;;;;;;17.77;10.73;;;17.60;99.90;;;;;;5100515;28;20047;-73
2021/11/12 07:52:27;;;;;;;23.65;11.32;;;17.60;99.90;;;;;;5106247;28;20070;-73
2021/11/12 07:54:54;;;;;;;31.13;11.30;;;17.80;99.90;;;;;;5092895;28;20036;-73
2021/11/12 07:57:20;;;;;;;29.15;11.70;;;18.00;99.90;;;;;;5111525;28;20019;-73
2021/11/12 07:59:47;;;;;;;22.75;11.18;;;18.20;99.90;;;;;;5108247;28;20051;-72
2021/11/12 08:02:15;;;;;;;23.60;11.52;;;18.60;99.90;;;;;;5109631;28;20028;-76
2021/11/12 08:04:42;;;;;;;27.73;10.63;;;20.00;99.90;;;;;;5100015;28;20115;-74
2021/11/12 08:07:09;;;;;;;19.98;10.02;;;22.00;99.90;;;;;;5103725;28;20118;-74
2021/11/12 08:09:47;;;;;;;16.90;9.77;;;23.70;99.90;;;;;;5097943;28;20028;-75
2021/11/12 08:12:23;;;;;;;25.40;9.85;;;24.20;99.90;;;;;;5088243;28;20422;-74
2021/11/12 08:17:44;;;;;;;19.38;10.20;;;23.60;99.90;;;;;;5095029;28;20023;-73
2021/11/12 08:25:41;;;;;;;18.60;9.27;;;22.70;99.90;;;;;;5105397;28;20015;-73
2021/11/12 08:31:35;;;;;;;11.20;7.25;;;22.50;99.90;;;;;;5029333;28;20456;-74
2021/11/12 08:34:10;;;;;;;16.42;7.22;;;22.30;99.90;;;;;;5099725;28;20051;-73
2021/11/12 08:39:41;;;;;;;14.30;6.38;;;22.10;99.90;;;;;;5110859;28;20040;-75
2021/11/12 08:42:17;;;;;;;12.60;6.78;;;22.20;99.90;;;;;;5109769;28;20360;-77
2021/11/12 08:44:48;;;;;;;15.93;8.32;;;22.00;99.90;;;;;;5113544;28;20077;-76
2021/11/12 08:49:53;;;;;;;17.05;8.38;;;21.80;99.90;;;;;;5102725;28;20023;-73
2021/11/12 08:52:19;;;;;;;18.20;8.35;;;21.70;99.90;;;;;;5095163;28;20043;-75
2021/11/12 08:54:47;;;;;;;11.52;7.25;;;21.70;99.90;;;;;;5110579;28;20391;-76
2021/11/12 08:57:15;;;;;;;18.77;7.57;;;21.80;99.90;;;;;;5107411;28;20099;-77
2021/11/12 08:59:47;;;;;;;18.92;7.68;;;21.80;99.90;;;;;;5115212;28;20023;-74
2021/11/12 09:02:18;;;;;;;15.77;7.28;;;22.10;99.90;;;;;;5115093;28;20023;-72
2021/11/12 09:04:46;;;;;;;11.95;6.97;;;22.40;99.90;;;;;;5094795;28;20037;-75
2021/11/12 09:07:14;;;;;;;15.52;7.47;;;22.70;99.90;;;;;;5103724;28;20518;-75
2021/11/12 09:09:41;;;;;;;18.33;7.82;;;23.40;99.90;;;;;;5113184;28;20055;-72
2021/11/12 09:12:09;;;;;;;13.57;7.53;;;24.60;99.90;;;;;;5097047;28;20099;-78
2021/11/12 09:14:39;;;;;;;14.15;6.57;;;25.70;99.90;;;;;;5100911;28;20038;-73
2021/11/12 09:17:07;;;;;;;11.60;6.68;;;26.80;99.90;;;;;;5102841;28;20038;-72
2021/11/12 09:19:44;;;;;;;17.15;6.93;;;29.10;99.40;;;;;;5099832;28;20016;-77
2021/11/12 09:22:10;;;;;;;11.98;6.32;;;30.10;95.80;;;;;;5096849;28;20368;-72
2021/11/12 09:24:36;;;;;;;8.80;5.95;;;30.90;93.90;;;;;;5077536;28;20024;-72
2021/11/12 09:27:01;;;;;;;16.98;6.45;;;33.20;90.40;;;;;;5096489;28;20023;-72
2021/11/12 09:29:27;;;;;;;12.82;5.68;;;35.00;83.10;;;;;;5098044;28;20023;-75
2021/11/12 09:31:53;;;;;;;17.40;4.45;;;36.00;76.60;;;;;;5114018;28;20455;-76
2021/11/12 09:34:19;;;;;;;11.45;4.93;;;37.20;71.20;;;;;;5113202;28;20047;-72
2021/11/12 09:36:45;;;;;;;12.73;5.72;;;36.70;68.80;;;;;;5105904;28;20043;-75
2021/11/12 09:39:11;;;;;;;6.85;5.00;;;36.00;68.80;;;;;;5099196;28;20054;-74
2021/11/12 09:41:37;;;;;;;11.45;5.13;;;35.10;69.20;;;;;;5104351;28;20050;-73
2021/11/12 09:44:04;;;;;;;9.57;5.68;;;34.00;70.80;;;;;;5096209;28;20024;-74
2021/11/12 09:46:31;;;;;;;11.77;5.97;;;32.60;72.30;;;;;;5095905;28;20356;-75
2021/11/12 09:48:59;;;;;;;15.25;6.32;;;31.10;75.00;;;;;;5104355;28;20028;-73
2021/11/12 09:51:27;;;;;;;16.60;5.93;;;30.50;76.50;;;;;;5111897;28;20027;-72
2021/11/12 09:53:53;;;;;;;11.48;5.10;;;32.40;74.20;;;;;;5110556;28;20028;-71
2021/11/12 09:56:19;;;;;;;16.60;5.28;;;34.70;70.30;;;;;;5109300;28;20019;-72
2021/11/12 09:58:49;;;;;;;13.32;7.07;;;36.10;67.30;;;;;;5104207;28;20528;-73
2021/11/12 10:01:16;;;;;;;17.95;9.27;;;35.20;70.70;;;;;;5099478;28;20061;-72
2021/11/12 10:03:45;;;;;;;24.02;10.85;;;32.80;75.90;;;;;;5110327;28;20098;-72
2021/11/12 10:06:22;;;;;;;31.73;12.02;;;30.40;82.10;;;;;;5099575;28;20073;-72
2021/11/12 10:08:49;;;;;;;26.50;13.10;;;28.10;88.00;;;;;;5101839;28;20020;-73
2021/11/12 10:11:23;;;;;;;24.40;13.70;;;26.50;91.30;;;;;;5080424;28;20024;-74
2021/11/12 10:13:58;;;;;;;24.55;14.23;;;25.10;93.40;;;;;;5100387;28;20032;-73
2021/11/12 10:16:34;;;;;;;30.40;15.45;;;24.20;95.20;;;;;;5108790;28;20016;-73
2021/11/12 10:19:12;;;;;;;24.45;14.88;;;23.40;97.00;;;;;;5103935;28;20058;-72
2021/11/12 10:21:40;;;;;;;29.63;15.38;;;22.90;98.40;;;;;;5110758;28;20055;-73
2021/11/12 10:24:15;;;;;;;33.20;16.48;;;22.50;99.60;;;;;;5108691;28;20036;-74
2021/11/12 10:26:52;;;;;;;37.78;17.52;;;22.20;99.90;;;;;;5109702;28;20106;-75
2021/11/12 10:29:22;;;;;;;33.88;17.08;;;21.80;99.90;;;;;;5093138;28;20020;-73
2021/11/12 10:31:51;;;;;;;39.13;18.67;;;21.40;99.90;;;;;;5106988;28;20043;-72
2021/11/12 10:34:23;;;;;;;33.72;17.83;;;21.20;99.90;;;;;;5108961;28;20438;-72
2021/11/12 10:36:56;;;;;;;30.38;16.63;;;20.90;99.90;;;;;;5112553;28;20036;-73
2021/11/12 10:39:34;;;;;;;27.85;15.43;;;20.70;99.90;;;;;;5112310;28;20493;-73
2021/11/12 10:42:03;;;;;;;29.98;16.60;;;20.50;99.90;;;;;;5111747;28;20019;-75
2021/11/12 10:44:32;;;;;;;35.78;18.17;;;20.30;99.90;;;;;;5110175;28;20007;-73
2021/11/12 10:47:03;;;;;;;28.85;17.05;;;20.20;99.90;;;;;;5112704;28;20118;-71
2021/11/12 10:49:33;;;;;;;30.92;17.80;;;20.10;99.90;;;;;;5112346;28;20028;-73
2021/11/12 10:52:03;;;;;;;35.10;18.77;;;20.00;99.90;;;;;;5094493;28;20028;-71
2021/11/12 10:54:56;;;;;;;46.92;20.08;;;20.10;99.90;;;;;;5095951;28;20040;-72
2021/11/12 10:57:29;;;;;;;35.17;19.58;;;20.50;99.90;;;;;;5100775;28;20034;-73
2021/11/12 11:00:07;;;;;;;32.17;18.35;;;21.10;99.90;;;;;;5104063;28;20023;-73
2021/11/12 11:02:44;;;;;;;31.33;18.42;;;21.30;99.90;;;;;;5105688;28;20056;-75
2021/11/12 11:05:16;;;;;;;39.67;19.40;;;21.10;99.90;;;;;;5107452;28;20055;-73
2021/11/12 11:07:45;;;;;;;28.20;19.02;;;20.90;99.90;;;;;;5102810;28;20024;-74
2021/11/12 11:10:24;;;;;;;32.47;20.77;;;20.80;99.90;;;;;;5108363;28;20420;-76
2021/11/12 11:12:50;;;;;;;37.65;20.02;;;20.60;99.90;;;;;;5110804;28;20077;-72
2021/11/12 11:15:23;;;;;;;37.30;20.98;;;20.40;99.90;;;;;;5109893;28;20028;-74
2021/11/12 11:18:03;;;;;;;31.25;19.60;;;20.30;99.90;;;;;;5100060;28;20471;-75
2021/11/12 11:20:30;;;;;;;38.15;21.17;;;20.20;99.90;;;;;;5104669;28;20024;-76
2021/11/12 11:22:59;;;;;;;38.50;22.10;;;20.10;99.90;;;;;;5109853;28;20168;-74
2021/11/12 11:25:26;;;;;;;35.83;18.98;;;20.00;99.90;;;;;;5102009;28;20024;-76
2021/11/12 11:27:54;;;;;;;34.70;20.17;;;20.10;99.90;;;;;;5092178;28;20028;-74
2021/11/12 11:30:21;;;;;;;37.08;19.88;;;19.90;99.90;;;;;;5105251;28;20061;-74
2021/11/12 11:32:47;;;;;;;34.85;20.02;;;19.80;99.90;;;;;;5111195;28;20031;-74
2021/11/12 11:35:15;;;;;;;41.47;21.00;;;19.70;99.90;;;;;;5086467;28;20026;-74
2021/11/12 11:37:42;;;;;;;45.42;22.50;;;19.70;99.90;;;;;;5099720;28;20040;-80
2021/11/12 11:40:12;;;;;;;42.42;22.00;;;19.50;99.90;;;;;;5098318;28;20051;-78
2021/11/12 11:42:42;;;;;;;44.00;22.13;;;19.30;99.90;;;;;;5106635;28;20023;-77
2021/11/12 11:45:10;;;;;;;47.42;25.00;;;19.10;99.90;;;;;;5095893;28;20016;-74
2021/11/12 11:47:37;;;;;;;42.70;24.20;;;19.00;99.90;;;;;;5106274;28;20441;-78
2021/11/12 11:50:27;;;;;;;45.75;22.58;;;19.00;99.90;;;;;;5111833;28;21070;-78
2021/11/12 11:52:53;;;;;;;44.35;25.50;;;19.00;99.90;;;;;;5106276;28;20031;-76
2021/11/12 11:55:37;;;;;;;42.85;25.25;;;19.10;99.90;;;;;;5096421;28;20035;-76
2021/11/12 11:58:34;;;;;;;42.63;26.27;;;19.10;99.90;;;;;;5081158;28;20032;-76
2021/11/12 12:01:22;;;;;;;43.45;23.17;;;19.20;99.90;;;;;;5067556;28;20617;-75
2021/11/12 12:04:10;;;;;;;43.30;24.63;;;19.20;99.90;;;;;;5096122;28;20459;-76
2021/11/12 12:06:43;;;;;;;46.03;25.60;;;19.20;99.90;;;;;;5098602;28;20098;-75
2021/11/12 12:09:14;;;;;;;48.90;26.77;;;19.20;99.90;;;;;;5106020;28;20024;-76
2021/11/12 12:11:42;;;;;;;49.55;26.10;;;19.30;99.90;;;;;;5081141;28;20023;-76
2021/11/12 12:14:26;;;;;;;58.90;27.42;;;19.30;99.90;;;;;;5103555;28;20135;-75
2021/11/12 12:17:04;;;;;;;46.40;25.27;;;19.40;99.90;;;;;;5114441;28;20084;-77
2021/11/12 12:19:55;;;;;;;46.00;25.75;;;19.50;99.90;;;;;;5114632;28;20018;-74
2021/11/12 13:25:06;;;;;;;44.50;24.60;;;18.50;99.90;;;;;;5100303;28;20016;-74
2021/11/12 13:27:32;;;;;;;43.33;23.17;;;18.50;99.90;;;;;;5075663;28;20016;-79
2021/11/12 13:29:57;;;;;;;42.60;22.98;;;18.50;99.90;;;;;;5110405;28;20470;-78
2021/11/12 13:32:23;;;;;;;36.92;23.08;;;18.40;99.90;;;;;;5095625;28;20013;-78
2021/11/12 13:34:49;;;;;;;48.08;25.45;;;18.40;99.90;;;;;;5113262;28;20491;-78
2021/11/12 13:37:20;;;;;;;36.08;22.05;;;18.30;99.90;;;;;;5112674;28;20517;-76
2021/11/12 13:40:08;;;;;;;49.97;22.73;;;18.30;99.90;;;;;;5106535;28;20086;-77
2021/11/12 13:42:42;;;;;;;43.55;23.10;;;18.20;99.90;;;;;;5081573;28;20077;-77
2021/11/12 13:45:13;;;;;;;39.78;22.40;;;18.00;99.90;;;;;;5101555;28;20030;-77
2021/11/12 13:47:39;;;;;;;34.90;20.58;;;17.90;99.90;;;;;;5108525;28;20111;-78
2021/11/12 13:50:05;;;;;;;39.85;21.45;;;17.80;99.90;;;;;;5109797;28;20107;-78
2021/11/12 13:52:34;;;;;;;36.47;20.73;;;17.80;99.90;;;;;;5105661;28;20502;-79
2021/11/12 13:55:10;;;;;;;38.92;21.98;;;17.80;99.90;;;;;;5075739;28;20035;-78
2021/11/12 13:57:36;;;;;;;32.60;20.42;;;17.90;99.90;;;;;;5103919;28;20028;-80
2021/11/12 14:00:10;;;;;;;43.67;20.48;;;18.00;99.90;;;;;;5103577;28;20020;-78
2021/11/12 14:02:54;;;;;;;43.60;21.92;;;17.90;99.90;;;;;;5103330;28;20077;-81
2021/11/12 14:05:21;;;;;;;39.05;23.88;;;17.90;99.90;;;;;;5109767;28;20051;-81
2021/11/12 14:07:58;;;;;;;37.33;23.85;;;17.90;99.90;;;;;;5108099;28;20096;-81
2021/11/12 14:10:39;;;;;;;41.17;23.58;;;17.90;99.90;;;;;;5106332;28;20024;-77
2021/11/12 14:13:06;;;;;;;42.90;24.75;;;17.90;99.90;;;;;;5096203;28;20039;-80
2021/11/12 14:15:45;;;;;;;50.42;25.55;;;17.90;99.90;;;;;;5106054;27;20475;-82
2021/11/12 14:26:45;;;;;;;45.70;23.73;;;17.90;99.90;;;;;;5097695;28;20708;-80
2021/11/12 14:29:15;;;;;;;52.47;25.60;;;17.80;99.90;;;;;;5078732;28;20020;-78
2021/11/12 14:34:28;;;;;;;51.47;25.83;;;17.70;99.90;;;;;;5092635;28;20023;-79
2021/11/12 14:37:01;;;;;;;44.33;25.95;;;17.60;99.90;;;;;;5103222;28;20063;-77
2021/11/12 14:39:41;;;;;;;56.70;31.70;;;17.60;99.90;;;;;;5112185;28;20028;-78
2021/11/12 14:44:55;;;;;;;50.90;27.08;;;17.50;99.90;;;;;;5113094;28;20024;-80
2021/11/12 14:47:33;;;;;;;46.10;27.98;;;17.50;99.90;;;;;;5112025;28;20457;-79
2021/11/12 14:50:07;;;;;;;45.03;25.83;;;17.60;99.90;;;;;;5111256;28;20024;-78
2021/11/12 14:52:33;;;;;;;49.25;25.67;;;17.50;99.90;;;;;;5112302;28;20047;-78
2021/11/12 14:55:10;;;;;;;40.25;22.60;;;17.40;99.90;;;;;;5103797;28;20081;-76
2021/11/12 14:57:38;;;;;;;39.60;24.45;;;17.30;99.90;;;;;;5092912;28;20565;-78
2021/11/12 15:00:15;;;;;;;35.20;21.38;;;17.30;99.90;;;;;;5105751;28;20426;-77
2021/11/12 15:02:42;;;;;;;36.40;21.40;;;17.20;99.90;;;;;;5083231;28;20475;-78
2021/11/12 15:05:10;;;;;;;39.40;23.10;;;17.10;99.90;;;;;;5100414;28;20024;-78
2021/11/12 15:07:39;;;;;;;43.58;22.95;;;17.10;99.90;;;;;;5106863;28;20043;-78
2021/11/12 15:10:10;;;;;;;50.13;22.13;;;17.10;99.90;;;;;;5101565;28;20077;-76
2021/11/12 15:12:37;;;;;;;48.97;21.55;;;17.00;99.90;;;;;;5096765;28;20045;-77
2021/11/12 15:15:04;;;;;;;45.97;22.23;;;17.00;99.90;;;;;;5086670;28;20031;-78
2021/11/12 15:17:30;;;;;;;43.70;20.98;;;16.90;99.90;;;;;;5111980;28;20016;-78
2021/11/12 15:19:57;;;;;;;33.08;20.02;;;16.90;99.90;;;;;;5093719;28;20072;-78
2021/11/12 15:30:20;;;;;;;39.30;21.85;;;16.80;99.90;;;;;;5111600;28;20110;-79
2021/11/12 15:32:53;;;;;;;36.28;20.05;;;16.60;99.90;;;;;;5093453;28;20036;-79
2021/11/12 15:35:23;;;;;;;36.05;20.50;;;16.50;99.90;;;;;;5093820;28;20035;-79
2021/11/12 16:08:52;;;;;;;47.53;30.02;;;15.70;99.90;;;;;;5105259;28;20098;-82
2021/11/12 16:11:25;;;;;;;52.05;29.52;;;15.70;99.90;;;;;;5101490;28;20119;-78
2021/11/12 16:16:36;;;;;;;56.78;31.05;;;15.60;99.90;;;;;;5099022;28;20040;-81
2021/11/12 16:19:50;;;;;;;55.45;31.70;;;15.60;99.90;;;;;;5101320;28;20533;-80
2021/11/12 16:27:08;;;;;;;55.47;34.75;;;15.40;99.90;;;;;;5096677;28;20108;-81
2021/11/12 16:29:43;;;;;;;51.53;31.45;;;15.40;99.90;;;;;;5095905;28;20421;-79
2021/11/12 16:32:18;;;;;;;70.28;38.03;;;15.40;99.90;;;;;;5104004;28;20016;-78
2021/11/12 16:34:47;;;;;;;69.15;41.00;;;15.30;99.90;;;;;;5114558;28;20027;-78
2021/11/12 16:37:16;;;;;;;67.10;39.28;;;15.20;99.90;;;;;;5114377;28;20044;-81
2021/11/12 16:47:37;;;;;;;68.80;40.90;;;15.10;99.90;;;;;;5112150;28;20105;-77
2021/11/12 16:52:42;;;;;;;70.20;36.83;;;15.10;99.90;;;;;;5101406;28;20024;-78
2021/11/12 17:05:39;;;;;;;71.25;43.20;;;15.00;99.90;;;;;;5110788;28;20030;-77
2021/11/12 17:45:55;;;;;;;87.03;53.45;;;14.70;99.90;;;;;;5114353;28;20030;-84
2021/11/12 17:48:43;;;;;;;83.68;54.80;;;14.70;99.90;;;;;;5103662;28;20027;-85
2021/11/12 18:01:37;;;;;;;72.22;41.00;;;14.70;99.90;;;;;;5113923;28;20038;-81
2021/11/12 18:02:29;;;;;;;73.32;35.75;;;14.90;99.90;;;;;;5104409;28;20026;-82
2021/11/12 18:05:13;;;;;;;66.22;35.42;;;15.00;99.90;;;;;;5113514;28;20016;-81
2021/11/12 21:45:36;;;;;;;39.70;21.88;;;14.40;99.90;;;;;;5114403;28;20110;-79
2021/11/12 21:48:03;;;;;;;42.42;23.10;;;14.50;99.90;;;;;;5095555;28;20577;-77
2021/11/12 21:50:32;;;;;;;39.25;22.33;;;14.50;99.90;;;;;;5095475;28;20045;-78
2021/11/12 21:52:58;;;;;;;36.20;21.83;;;14.50;99.90;;;;;;5113370;28;20015;-79
2021/11/12 21:55:24;;;;;;;41.72;22.00;;;14.50;99.90;;;;;;5113508;28;20020;-80
2021/11/12 21:57:50;;;;;;;31.80;20.33;;;14.50;99.90;;;;;;5113363;28;20266;-79
2021/11/12 22:00:16;;;;;;;35.85;21.50;;;14.50;99.90;;;;;;5113772;28;20016;-77
2021/11/12 22:02:42;;;;;;;37.70;21.38;;;14.50;99.90;;;;;;5114169;28;20521;-79
2021/11/12 22:05:08;;;;;;;43.78;21.60;;;14.50;99.90;;;;;;5113803;28;20019;-80
2021/11/12 22:07:36;;;;;;;40.95;22.27;;;14.40;99.90;;;;;;5113874;28;20544;-79
2021/11/12 22:10:04;;;;;;;53.28;22.88;;;14.50;99.90;;;;;;5113366;28;20043;-78
2021/11/12 22:12:29;;;;;;;37.45;23.08;;;14.40;99.90;;;;;;5113198;28;20024;-79
2021/11/12 22:14:55;;;;;;;40.72;24.13;;;14.40;99.90;;;;;;5113250;28;20058;-79
2021/11/12 22:17:21;;;;;;;51.53;22.88;;;14.40;99.90;;;;;;5113574;28;20016;-79
2021/11/12 22:19:47;;;;;;;42.20;22.65;;;14.40;99.90;;;;;;5113095;28;20456;-78
2021/11/12 22:22:12;;;;;;;42.85;22.90;;;14.30;99.90;;;;;;5113521;28;20053;-79
2021/11/12 22:24:38;;;;;;;48.75;24.60;;;14.30;99.90;;;;;;5113009;28;20111;-79
2021/11/12 22:27:04;;;;;;;57.00;25.63;;;14.40;99.90;;;;;;5112872;28;20430;-78
2021/11/12 22:29:30;;;;;;;48.40;25.27;;;14.40;99.90;;;;;;5113702;28;20023;-79
2021/11/12 22:31:57;;;;;;;60.25;25.08;;;14.40;99.90;;;;;;5112978;28;20030;-77
2021/11/12 22:36:58;;;;;;;53.38;25.90;;;14.30;99.90;;;;;;5667639;22;20078;-79
2021/11/12 22:39:23;;;;;;;46.67;27.77;;;14.40;99.90;;;;;;5131577;27;20023;-79
2021/11/12 22:41:50;;;;;;;43.25;26.90;;;14.40;99.90;;;;;;5133509;27;20030;-81
2021/11/12 22:44:17;;;;;;;52.70;28.48;;;14.40;99.90;;;;;;5125864;27;20012;-79
2021/11/12 22:46:43;;;;;;;55.92;28.23;;;14.40;99.90;;;;;;5112596;28;20027;-80
2021/11/12 22:49:10;;;;;;;67.10;34.40;;;14.50;99.90;;;;;;5098994;28;20016;-79
2021/11/12 22:51:36;;;;;;;70.88;36.83;;;14.40;99.90;;;;;;5106195;28;20028;-78
2021/11/12 22:54:03;;;;;;;60.83;32.90;;;14.40;99.90;;;;;;5100644;28;20031;-80
2021/11/12 22:56:29;;;;;;;54.85;27.77;;;14.40;99.90;;;;;;5112473;28;20050;-76